createdAt,value
2017-12-30T00:01:13.851Z,100.00
2017-12-30T00:03:41.632Z,100.00
2017-12-30T00:06:09.294Z,100.00
2017-12-30T00:08:37.001Z,100.00
2017-12-30T00:11:04.687Z,100.00
2017-12-30T00:13:32.333Z,99.81
2017-12-30T00:16:00.040Z,99.67
2017-12-30T00:18:27.734Z,99.36
2017-12-30T00:20:55.329Z,99.13
2017-12-30T00:23:23.899Z,98.97
2017-12-30T00:25:52.039Z,98.93
2017-12-30T00:28:19.665Z,98.80
2017-12-30T00:30:47.439Z,98.71
2017-12-30T00:33:15.056Z,98.55
2017-12-30T00:35:42.795Z,98.24
2017-12-30T00:38:12.788Z,98.03
2017-12-30T00:40:40.374Z,97.91
2017-12-30T00:43:07.974Z,97.81
2017-12-30T00:45:35.620Z,97.77
2017-12-30T00:48:03.291Z,97.84
2017-12-30T00:50:30.913Z,97.68
2017-12-30T00:52:58.570Z,97.60
2017-12-30T00:55:26.217Z,97.51
2017-12-30T00:57:55.771Z,97.50
2017-12-30T01:00:23.432Z,97.34
2017-12-30T01:02:51.047Z,97.16
2017-12-30T01:05:18.694Z,96.91
2017-12-30T01:07:46.363Z,96.83
2017-12-30T01:10:13.966Z,96.92
2017-12-30T01:12:41.619Z,96.88
2017-12-30T01:15:09.252Z,96.62
2017-12-30T01:17:39.876Z,96.54
2017-12-30T01:20:09.861Z,96.57
2017-12-30T01:22:37.615Z,96.51
2017-12-30T01:25:05.266Z,96.73
2017-12-30T01:27:32.934Z,96.85
2017-12-30T01:30:01.308Z,96.92
2017-12-30T01:32:31.005Z,96.93
2017-12-30T01:35:00.306Z,96.90
2017-12-30T01:37:27.992Z,96.99
2017-12-30T01:39:55.628Z,97.17
2017-12-30T01:42:23.239Z,97.30
2017-12-30T01:44:50.878Z,97.30
2017-12-30T01:47:20.096Z,97.34
2017-12-30T01:49:47.754Z,97.23
2017-12-30T01:52:15.495Z,97.07
2017-12-30T01:54:43.093Z,97.01
2017-12-30T01:57:10.731Z,97.03
2017-12-30T01:59:38.462Z,97.24
2017-12-30T02:02:06.086Z,97.10
2017-12-30T02:04:33.716Z,97.18
2017-12-30T02:07:01.361Z,97.29
2017-12-30T02:09:29.012Z,97.28
2017-12-30T02:11:59.262Z,97.45
2017-12-30T02:14:26.916Z,97.52
2017-12-30T02:16:54.832Z,97.47
2017-12-30T02:19:22.455Z,97.47
2017-12-30T02:21:50.062Z,97.54
2017-12-30T02:24:20.606Z,97.52
2017-12-30T02:26:48.260Z,97.68
2017-12-30T02:29:16.343Z,97.66
2017-12-30T02:31:43.942Z,97.62
2017-12-30T02:34:11.641Z,97.53
2017-12-30T02:36:39.265Z,97.43
2017-12-30T02:39:07.052Z,97.25
2017-12-30T02:41:34.693Z,96.95
2017-12-30T02:44:02.308Z,96.71
2017-12-30T02:46:32.665Z,96.43
2017-12-30T02:49:00.326Z,96.27
2017-12-30T02:51:28.694Z,96.16
2017-12-30T02:53:56.504Z,95.90
2017-12-30T02:56:24.102Z,95.75
2017-12-30T02:58:51.714Z,95.60
2017-12-30T03:01:19.396Z,95.54
2017-12-30T03:03:47.024Z,95.43
2017-12-30T03:06:14.658Z,95.41
2017-12-30T03:08:42.276Z,95.50
2017-12-30T03:11:09.874Z,95.58
2017-12-30T03:13:39.218Z,95.53
2017-12-30T03:16:06.901Z,95.52
2017-12-30T03:18:34.468Z,95.49
2017-12-30T03:21:02.162Z,95.49
2017-12-30T03:23:29.788Z,95.39
2017-12-30T03:25:57.404Z,95.19
2017-12-30T03:28:26.906Z,95.17
2017-12-30T03:30:54.537Z,95.10
2017-12-30T03:33:22.124Z,95.19
2017-12-30T03:35:49.776Z,95.16
2017-12-30T03:38:17.454Z,95.09
2017-12-30T03:40:46.660Z,95.11
2017-12-30T03:43:14.644Z,95.03
2017-12-30T03:45:42.230Z,94.97
2017-12-30T03:48:09.820Z,94.87
2017-12-30T03:50:37.485Z,94.78
2017-12-30T03:53:05.142Z,94.83
2017-12-30T03:55:33.138Z,95.04
2017-12-30T03:58:00.736Z,95.01
2017-12-30T04:00:28.320Z,95.04
2017-12-30T04:02:55.926Z,94.91
2017-12-30T04:05:23.638Z,94.89
2017-12-30T04:07:51.304Z,94.73
2017-12-30T04:10:18.880Z,94.40
2017-12-30T04:12:48.702Z,94.31
2017-12-30T04:15:16.310Z,94.28
2017-12-30T04:17:43.930Z,94.24
2017-12-30T04:20:11.736Z,94.09
2017-12-30T04:22:40.960Z,93.99
2017-12-30T04:25:08.614Z,93.91
2017-12-30T04:27:37.107Z,93.78
2017-12-30T04:30:04.733Z,93.66
2017-12-30T04:32:33.965Z,93.53
2017-12-30T04:35:04.252Z,93.35
2017-12-30T04:37:33.078Z,93.22
2017-12-30T04:40:00.754Z,93.20
2017-12-30T04:42:30.113Z,93.22
2017-12-30T04:44:57.769Z,93.01
2017-12-30T04:47:25.967Z,93.07
2017-12-30T04:49:53.594Z,92.93
2017-12-30T04:52:21.528Z,92.84
2017-12-30T04:54:49.249Z,92.82
2017-12-30T04:57:16.854Z,92.65
2017-12-30T04:59:44.715Z,92.57
2017-12-30T05:02:12.421Z,92.68
2017-12-30T05:04:40.120Z,92.71
2017-12-30T05:07:07.732Z,92.61
2017-12-30T05:09:36.101Z,92.62
2017-12-30T05:12:04.031Z,92.80
2017-12-30T05:14:31.621Z,92.84
2017-12-30T05:16:59.269Z,92.81
2017-12-30T05:19:26.891Z,92.88
2017-12-30T05:21:54.486Z,92.96
2017-12-30T05:24:22.133Z,93.19
2017-12-30T05:26:49.749Z,93.23
2017-12-30T05:29:17.351Z,93.17
2017-12-30T05:31:45.010Z,93.19
2017-12-30T05:34:12.643Z,93.18
2017-12-30T05:36:40.431Z,93.20
2017-12-30T05:39:08.015Z,93.30
2017-12-30T05:41:35.662Z,93.47
2017-12-30T05:44:03.648Z,93.50
2017-12-30T05:46:31.251Z,93.50
2017-12-30T05:48:58.949Z,93.52
2017-12-30T05:51:26.650Z,93.69
2017-12-30T05:53:54.214Z,93.73
2017-12-30T05:56:21.866Z,93.77
2017-12-30T05:58:49.459Z,93.90
2017-12-30T06:01:17.111Z,94.03
2017-12-30T06:03:44.741Z,94.00
2017-12-30T06:06:12.462Z,94.05
2017-12-30T06:08:40.081Z,94.18
2017-12-30T06:11:09.573Z,94.45
2017-12-30T06:13:39.828Z,94.64
2017-12-30T06:16:07.535Z,94.71
2017-12-30T06:18:35.171Z,94.73
2017-12-30T06:21:02.774Z,94.74
2017-12-30T06:23:30.393Z,94.82
2017-12-30T06:25:58.069Z,94.88
2017-12-30T06:28:25.706Z,94.87
2017-12-30T06:30:53.277Z,94.87
2017-12-30T06:33:20.880Z,94.87
2017-12-30T06:35:48.531Z,94.99
2017-12-30T06:38:16.216Z,95.14
2017-12-30T06:40:43.987Z,95.30
2017-12-30T06:43:11.577Z,95.50
2017-12-30T06:45:39.206Z,95.62
2017-12-30T06:48:08.619Z,95.79
2017-12-30T06:50:36.305Z,95.86
2017-12-30T06:53:04.200Z,95.90
2017-12-30T06:55:31.865Z,95.91
2017-12-30T06:57:59.449Z,95.84
2017-12-30T07:00:27.282Z,95.81
2017-12-30T07:02:54.987Z,95.80
2017-12-30T07:05:23.549Z,95.84
2017-12-30T07:07:51.189Z,95.88
2017-12-30T07:10:19.030Z,95.93
2017-12-30T07:12:46.633Z,95.93
2017-12-30T07:15:14.267Z,95.91
2017-12-30T07:17:43.495Z,95.88
2017-12-30T07:20:11.143Z,95.85
2017-12-30T07:22:38.787Z,95.86
2017-12-30T07:25:06.519Z,95.90
2017-12-30T07:27:34.169Z,95.92
2017-12-30T07:30:01.844Z,95.91
2017-12-30T07:32:29.545Z,95.97
2017-12-30T07:34:57.193Z,95.90
2017-12-30T07:37:24.805Z,95.87
2017-12-30T07:39:52.405Z,95.87
2017-12-30T07:42:20.051Z,95.98
2017-12-30T07:44:47.637Z,96.02
2017-12-30T07:47:17.499Z,96.03
2017-12-30T07:49:45.233Z,96.07
2017-12-30T07:52:12.855Z,95.99
2017-12-30T07:54:40.475Z,95.58
2017-12-30T07:57:08.129Z,95.07
2017-12-30T07:59:35.747Z,94.74
2017-12-30T08:02:03.577Z,94.58
2017-12-30T08:04:31.356Z,94.36
2017-12-30T08:07:00.199Z,94.13
2017-12-30T08:09:29.625Z,93.87
2017-12-30T08:11:59.483Z,93.70
2017-12-30T08:14:27.291Z,93.68
2017-12-30T08:16:54.929Z,93.58
2017-12-30T08:19:22.567Z,93.57
2017-12-30T08:21:50.306Z,93.72
2017-12-30T08:24:18.039Z,93.72
2017-12-30T08:26:45.812Z,93.63
2017-12-30T08:29:13.473Z,93.19
2017-12-30T08:31:41.144Z,92.94
2017-12-30T08:34:08.898Z,92.81
2017-12-30T08:36:36.594Z,92.74
2017-12-30T08:39:04.393Z,92.61
2017-12-30T08:41:32.037Z,92.68
2017-12-30T08:44:01.590Z,92.71
2017-12-30T08:46:29.998Z,92.72
2017-12-30T08:48:57.773Z,92.73
2017-12-30T08:51:25.488Z,92.83
2017-12-30T08:53:53.195Z,92.77
2017-12-30T08:56:20.865Z,92.69
2017-12-30T08:58:48.536Z,92.74
2017-12-30T09:01:16.159Z,92.78
2017-12-30T09:03:43.772Z,92.77
2017-12-30T09:06:11.386Z,92.68
2017-12-30T09:08:39.016Z,92.66
2017-12-30T09:11:06.632Z,92.14
2017-12-30T09:13:34.752Z,91.64
2017-12-30T09:16:02.473Z,90.47
2017-12-30T09:18:30.144Z,89.65
2017-12-30T09:20:57.789Z,89.09
2017-12-30T09:23:25.422Z,88.22
2017-12-30T09:25:53.125Z,86.97
2017-12-30T09:28:20.749Z,86.68
2017-12-30T09:30:48.399Z,86.12
2017-12-30T09:33:16.056Z,85.27
2017-12-30T09:35:43.720Z,85.44
2017-12-30T09:38:11.464Z,84.78
2017-12-30T09:40:39.172Z,85.10
2017-12-30T09:43:06.793Z,84.00
2017-12-30T09:45:35.186Z,84.24
2017-12-30T09:48:04.673Z,84.30
2017-12-30T09:50:33.922Z,83.67
2017-12-30T09:53:02.421Z,83.19
2017-12-30T09:55:31.013Z,83.32
2017-12-30T09:57:58.664Z,83.93
2017-12-30T10:00:28.029Z,84.02
2017-12-30T10:02:55.718Z,84.18
2017-12-30T10:05:23.374Z,84.46
2017-12-30T10:07:51.128Z,84.11
2017-12-30T10:10:18.760Z,84.00
2017-12-30T10:12:49.055Z,84.49
2017-12-30T10:15:16.796Z,84.67
2017-12-30T10:17:45.182Z,84.86
2017-12-30T10:20:14.630Z,85.33
2017-12-30T10:22:42.352Z,85.88
2017-12-30T10:25:10.044Z,86.39
2017-12-30T10:27:37.674Z,86.18
2017-12-30T10:30:05.334Z,86.89
2017-12-30T10:32:33.131Z,87.53
2017-12-30T10:35:01.726Z,87.98
2017-12-30T10:37:29.590Z,88.51
2017-12-30T10:39:58.942Z,89.24
2017-12-30T10:42:26.614Z,90.13
2017-12-30T10:44:56.881Z,90.70
2017-12-30T10:47:24.526Z,91.03
2017-12-30T10:49:52.234Z,91.32
2017-12-30T10:52:19.954Z,91.71
2017-12-30T10:54:47.654Z,92.07
2017-12-30T10:57:16.033Z,92.47
2017-12-30T10:59:43.683Z,92.78
2017-12-30T11:02:11.292Z,93.20
2017-12-30T11:04:38.981Z,93.88
2017-12-30T11:07:06.687Z,94.42
2017-12-30T11:09:34.316Z,94.66
2017-12-30T11:12:02.000Z,94.98
2017-12-30T11:14:29.648Z,95.13
2017-12-30T11:16:57.369Z,95.29
2017-12-30T11:19:25.168Z,95.37
2017-12-30T11:21:52.814Z,95.37
2017-12-30T11:24:20.506Z,95.40
2017-12-30T11:26:50.222Z,95.53
2017-12-30T11:29:17.894Z,95.66
2017-12-30T11:31:47.350Z,95.55
2017-12-30T11:34:15.154Z,95.91
2017-12-30T11:36:42.918Z,95.99
2017-12-30T11:39:10.526Z,95.99
2017-12-30T11:41:38.238Z,96.14
2017-12-30T11:44:05.922Z,96.37
2017-12-30T11:46:33.554Z,96.33
2017-12-30T11:49:01.210Z,96.47
2017-12-30T11:51:29.935Z,96.60
2017-12-30T11:53:57.631Z,96.75
2017-12-30T11:56:25.322Z,96.94
2017-12-30T11:58:52.974Z,97.12
2017-12-30T12:01:20.661Z,97.18
2017-12-30T12:03:48.764Z,97.30
2017-12-30T12:06:16.490Z,97.42
2017-12-30T12:08:44.092Z,97.67
2017-12-30T12:11:11.938Z,97.84
2017-12-30T12:13:39.704Z,98.22
2017-12-30T12:16:07.440Z,98.52
2017-12-30T12:18:35.048Z,98.63
2017-12-30T12:21:02.698Z,98.94
2017-12-30T12:23:30.346Z,99.16
2017-12-30T12:25:58.930Z,99.28
2017-12-30T12:28:30.443Z,99.41
2017-12-30T12:30:58.560Z,99.51
2017-12-30T12:33:26.174Z,99.63
2017-12-30T12:35:53.956Z,99.67
2017-12-30T12:38:23.424Z,99.71
2017-12-30T12:40:51.106Z,99.89
2017-12-30T12:43:18.920Z,99.97
2017-12-30T12:45:48.418Z,100.00
2017-12-30T12:48:16.167Z,100.00
2017-12-30T12:50:45.440Z,100.00
2017-12-30T12:53:14.255Z,100.00
2017-12-30T12:55:42.072Z,100.00
2017-12-30T12:58:09.737Z,100.00
2017-12-30T13:00:39.185Z,100.00
2017-12-30T13:03:07.722Z,100.00
2017-12-30T13:05:35.423Z,100.00
2017-12-30T13:08:04.718Z,100.00
2017-12-30T13:10:32.538Z,100.00
2017-12-30T13:13:00.248Z,100.00
2017-12-30T13:15:27.888Z,100.00
2017-12-30T13:17:55.577Z,100.00
2017-12-30T13:20:23.315Z,100.00
2017-12-30T13:22:51.109Z,100.00
2017-12-30T13:25:19.994Z,100.00
2017-12-30T13:27:47.761Z,100.00
2017-12-30T13:30:15.737Z,100.00
2017-12-30T13:50:59.289Z,100.00
2017-12-30T13:53:26.889Z,100.00
2017-12-30T13:55:54.513Z,100.00
2017-12-30T13:58:22.157Z,100.00
2017-12-30T14:00:49.801Z,100.00
2017-12-30T14:03:17.395Z,100.00
2017-12-30T14:05:44.967Z,100.00
2017-12-30T14:08:15.549Z,100.00
2017-12-30T14:10:43.189Z,100.00
2017-12-30T14:13:12.697Z,100.00
2017-12-30T14:15:40.317Z,100.00
2017-12-30T14:18:09.089Z,100.00
2017-12-30T14:20:36.695Z,100.00
2017-12-30T14:23:04.272Z,100.00
2017-12-30T14:25:31.890Z,100.00
2017-12-30T14:27:59.471Z,100.00
2017-12-30T14:30:28.339Z,100.00
2017-12-30T14:32:55.928Z,100.00
2017-12-30T14:35:23.596Z,100.00
2017-12-30T14:37:52.291Z,100.00
2017-12-30T14:40:20.614Z,100.00
2017-12-30T14:42:48.306Z,100.00
2017-12-30T14:45:15.909Z,100.00
2017-12-30T14:47:44.497Z,100.00
2017-12-30T14:50:24.687Z,100.00
2017-12-30T14:52:52.293Z,100.00
2017-12-30T14:55:19.887Z,100.00
2017-12-30T14:57:48.354Z,100.00
2017-12-30T15:00:15.930Z,100.00
2017-12-30T15:02:43.564Z,100.00
2017-12-30T15:05:11.224Z,100.00
2017-12-30T15:07:38.907Z,100.00
2017-12-30T15:10:06.528Z,100.00
2017-12-30T15:12:34.214Z,100.00
2017-12-30T15:15:01.856Z,100.00
2017-12-30T15:17:29.460Z,100.00
2017-12-30T15:19:57.709Z,100.00
2017-12-30T15:22:25.387Z,100.00
2017-12-30T15:24:53.644Z,100.00
2017-12-30T15:27:27.051Z,100.00
2017-12-30T15:29:54.691Z,100.00
2017-12-30T15:32:22.286Z,100.00
2017-12-30T15:34:56.594Z,100.00
2017-12-30T15:37:37.151Z,100.00
2017-12-30T15:40:04.785Z,100.00
2017-12-30T15:42:32.477Z,100.00
2017-12-30T15:45:00.451Z,100.00
2017-12-30T15:47:35.179Z,100.00
2017-12-30T15:50:02.765Z,100.00
2017-12-30T15:52:30.689Z,100.00
2017-12-30T15:54:58.287Z,100.00
2017-12-30T15:57:27.424Z,100.00
2017-12-30T15:59:55.021Z,100.00
2017-12-30T16:02:22.712Z,100.00
2017-12-30T16:04:51.270Z,100.00
2017-12-30T16:07:18.928Z,100.00
2017-12-30T16:09:46.551Z,100.00
2017-12-30T16:12:16.739Z,100.00
2017-12-30T16:14:44.335Z,100.00
2017-12-30T16:17:11.972Z,100.00
2017-12-30T16:19:46.865Z,100.00
2017-12-30T16:22:17.664Z,100.00
2017-12-30T16:24:48.641Z,100.00
2017-12-30T16:27:18.683Z,100.00
2017-12-30T16:29:46.279Z,100.00
2017-12-30T16:32:13.856Z,100.00
2017-12-30T16:34:41.475Z,100.00
2017-12-30T16:37:09.073Z,100.00
2017-12-30T16:39:36.692Z,100.00
2017-12-30T16:42:24.049Z,100.00
2017-12-30T16:44:51.656Z,100.00
2017-12-30T16:47:19.211Z,100.00
2017-12-30T16:49:54.419Z,100.00
2017-12-30T16:52:22.026Z,100.00
2017-12-30T16:54:49.617Z,100.00
2017-12-30T16:57:23.981Z,100.00
2017-12-30T16:59:51.613Z,100.00
2017-12-30T17:02:19.183Z,100.00
2017-12-30T17:04:54.537Z,100.00
2017-12-30T17:07:22.108Z,100.00
2017-12-30T17:09:49.672Z,100.00
2017-12-30T17:12:17.325Z,100.00
2017-12-30T17:14:44.882Z,100.00
2017-12-30T17:17:12.504Z,100.00
2017-12-30T17:19:46.770Z,100.00
2017-12-30T17:22:14.404Z,100.00
2017-12-30T17:24:41.978Z,100.00
2017-12-30T17:27:09.564Z,100.00
2017-12-30T17:29:37.126Z,100.00
2017-12-30T17:32:05.256Z,100.00
2017-12-30T17:34:32.831Z,100.00
2017-12-30T17:37:00.694Z,100.00
2017-12-30T17:39:28.314Z,100.00
2017-12-30T17:41:55.900Z,100.00
2017-12-30T17:44:23.510Z,100.00
2017-12-30T17:46:51.080Z,100.00
2017-12-30T17:49:20.507Z,100.00
2017-12-30T17:51:48.067Z,100.00
2017-12-30T17:54:15.669Z,100.00
2017-12-30T17:56:53.108Z,100.00
2017-12-30T17:59:20.793Z,100.00
2017-12-30T18:01:48.388Z,100.00
2017-12-30T18:04:19.688Z,100.00
2017-12-30T18:06:47.397Z,100.00
2017-12-30T18:09:14.962Z,100.00
2017-12-30T18:11:45.558Z,100.00
2017-12-30T18:14:18.972Z,100.00
2017-12-30T18:16:47.244Z,100.00
2017-12-30T18:19:24.076Z,100.00
2017-12-30T18:21:52.692Z,100.00
2017-12-30T18:24:20.266Z,100.00
2017-12-30T18:26:53.631Z,100.00
2017-12-30T18:29:31.517Z,100.00
2017-12-30T18:31:59.263Z,100.00
2017-12-30T18:34:27.022Z,100.00
2017-12-30T18:36:55.827Z,99.96
2017-12-30T18:39:23.476Z,99.74
2017-12-30T18:41:51.062Z,99.90
2017-12-30T18:44:18.688Z,99.67
2017-12-30T18:46:46.303Z,99.77
2017-12-30T18:49:13.928Z,99.68
2017-12-30T18:51:41.556Z,99.58
2017-12-30T18:54:09.159Z,99.70
2017-12-30T18:56:40.454Z,99.76
2017-12-30T18:59:08.066Z,99.65
2017-12-30T19:01:46.148Z,99.67
2017-12-30T19:04:13.824Z,99.53
2017-12-30T19:06:41.445Z,99.62
2017-12-30T19:09:09.036Z,99.78
2017-12-30T19:11:39.012Z,99.94
2017-12-30T19:14:06.594Z,99.89
2017-12-30T19:16:34.240Z,99.45
2017-12-30T19:19:01.907Z,99.16
2017-12-30T19:21:29.551Z,99.13
2017-12-30T19:23:57.156Z,99.07
2017-12-30T19:26:38.022Z,99.04
2017-12-30T19:29:05.619Z,98.87
2017-12-30T19:31:33.267Z,99.02
2017-12-30T19:34:02.136Z,98.94
2017-12-30T19:36:29.801Z,98.69
2017-12-30T19:38:57.503Z,98.51
2017-12-30T19:41:25.149Z,98.49
2017-12-30T19:43:52.835Z,98.54
2017-12-30T19:46:44.161Z,98.54
2017-12-30T19:49:13.204Z,98.42
2017-12-30T19:51:40.949Z,98.17
2017-12-30T19:54:08.688Z,98.19
2017-12-30T19:56:37.283Z,98.14
2017-12-30T19:59:05.025Z,98.04
2017-12-30T20:01:32.825Z,98.20
2017-12-30T20:04:00.690Z,98.44
2017-12-30T20:06:28.682Z,98.57
2017-12-30T20:08:56.428Z,98.86
2017-12-30T20:11:24.104Z,99.08
2017-12-30T20:13:51.791Z,99.31
2017-12-30T20:16:19.505Z,99.42
2017-12-30T20:18:51.227Z,99.47
2017-12-30T20:21:19.023Z,99.58
2017-12-30T20:23:46.759Z,99.54
2017-12-30T20:26:15.378Z,99.45
2017-12-30T20:28:43.144Z,99.63
2017-12-30T20:31:14.696Z,99.47
2017-12-30T20:33:42.441Z,99.42
2017-12-30T20:36:10.531Z,99.41
2017-12-30T20:38:38.285Z,99.67
2017-12-30T20:41:06.048Z,99.79
2017-12-30T20:43:33.713Z,99.84
2017-12-30T20:46:01.383Z,100.00
2017-12-30T20:48:29.088Z,100.00
2017-12-30T20:50:56.899Z,100.00
2017-12-30T20:53:24.630Z,100.00
2017-12-30T20:55:52.352Z,100.00
2017-12-30T20:58:30.458Z,100.00
2017-12-30T21:00:58.146Z,100.00
2017-12-30T21:03:25.915Z,100.00
2017-12-30T21:05:53.816Z,100.00
2017-12-30T21:08:21.573Z,100.00
2017-12-30T21:10:50.070Z,100.00
2017-12-30T21:13:17.793Z,100.00
2017-12-30T21:15:45.594Z,100.00
2017-12-30T21:18:13.396Z,100.00
2017-12-30T21:20:41.198Z,100.00
2017-12-30T21:23:15.449Z,100.00
2017-12-30T21:25:43.582Z,100.00
2017-12-30T21:28:17.623Z,100.00
2017-12-30T21:30:45.406Z,100.00
2017-12-30T21:33:13.238Z,100.00
2017-12-30T21:35:40.982Z,100.00
2017-12-30T21:38:08.720Z,100.00
2017-12-30T21:40:36.433Z,100.00
2017-12-30T21:43:04.095Z,100.00
2017-12-30T21:45:31.718Z,100.00
2017-12-30T21:47:59.441Z,100.00
2017-12-30T21:50:27.053Z,100.00
2017-12-30T21:52:55.170Z,100.00
2017-12-30T21:55:23.668Z,100.00
2017-12-30T21:57:54.663Z,100.00
2017-12-30T22:00:22.298Z,100.00
2017-12-30T22:02:52.675Z,100.00
2017-12-30T22:05:20.362Z,100.00
2017-12-30T22:07:48.029Z,100.00
2017-12-30T22:10:15.665Z,100.00
2017-12-30T22:12:43.333Z,100.00
2017-12-30T22:15:11.319Z,100.00
2017-12-30T22:17:38.949Z,100.00
2017-12-30T22:20:06.616Z,99.96
2017-12-30T22:22:34.260Z,99.67
2017-12-30T22:25:01.895Z,99.46
2017-12-30T22:27:29.603Z,99.11
2017-12-30T22:29:57.240Z,99.06
2017-12-30T22:32:24.869Z,98.66
2017-12-30T22:34:52.552Z,98.40
2017-12-30T22:37:20.137Z,98.37
2017-12-30T22:39:47.747Z,98.28
2017-12-30T22:42:15.370Z,98.11
2017-12-30T22:44:43.862Z,98.09
2017-12-30T22:47:11.471Z,97.91
2017-12-30T22:49:41.926Z,97.85
2017-12-30T22:52:09.528Z,98.03
2017-12-30T22:54:37.124Z,97.80
2017-12-30T22:57:04.749Z,97.75
2017-12-30T22:59:32.329Z,97.86
2017-12-30T23:01:59.960Z,98.00
2017-12-30T23:04:27.591Z,98.04
2017-12-30T23:06:55.175Z,98.05
2017-12-30T23:09:22.815Z,98.17
2017-12-30T23:11:50.400Z,98.35
2017-12-30T23:14:18.050Z,98.21
2017-12-30T23:16:45.641Z,98.51
2017-12-30T23:19:13.276Z,98.38
2017-12-30T23:21:40.919Z,98.45
2017-12-30T23:24:08.492Z,98.52
2017-12-30T23:26:36.089Z,98.62
2017-12-30T23:29:03.712Z,98.51
2017-12-30T23:31:31.300Z,98.18
2017-12-30T23:33:58.875Z,98.02
2017-12-30T23:36:26.599Z,98.11
2017-12-30T23:38:54.201Z,97.95
2017-12-30T23:41:21.835Z,97.92
2017-12-30T23:43:49.431Z,97.85
2017-12-30T23:46:17.557Z,97.80
2017-12-30T23:48:45.163Z,97.73
2017-12-30T23:51:12.781Z,97.78
2017-12-30T23:53:40.428Z,97.70
2017-12-30T23:56:08.791Z,97.36
2017-12-30T23:58:36.387Z,97.03
